createdAt,value
2023-04-15T11:51:33.734Z,6.95
2023-04-15T11:56:36.951Z,7.28
2023-04-15T12:01:40.104Z,7.70
2023-04-15T12:06:42.705Z,8.20
2023-04-15T12:11:49.948Z,7.15
2023-04-15T12:17:14.114Z,8.47
2023-04-15T12:22:18.000Z,6.40
2023-04-15T12:27:21.445Z,8.50
2023-04-15T12:32:24.063Z,6.75
2023-04-15T12:37:26.625Z,9.67
2023-04-15T12:42:29.308Z,8.38
2023-04-15T12:47:34.514Z,9.55
2023-04-15T12:52:37.635Z,10.10
2023-04-15T12:57:40.215Z,6.38
2023-04-15T13:02:44.678Z,8.63
2023-04-15T13:07:49.977Z,10.33
2023-04-15T13:12:53.924Z,7.90
2023-04-15T13:17:56.945Z,6.88
2023-04-15T13:22:59.495Z,7.67
2023-04-15T13:28:02.082Z,7.63
2023-04-15T13:33:05.045Z,7.63
2023-04-15T13:38:07.664Z,7.05
2023-04-15T13:43:10.513Z,5.57
2023-04-15T13:48:13.084Z,9.75
2023-04-15T13:53:16.314Z,10.25
2023-04-15T13:58:18.795Z,9.43
2023-04-15T14:03:21.515Z,12.20
2023-04-15T14:08:26.056Z,5.53
2023-04-15T14:13:28.903Z,6.13
2023-04-15T14:18:31.543Z,8.47
2023-04-15T14:23:34.020Z,9.52
2023-04-15T14:28:39.692Z,13.30
2023-04-15T14:33:42.475Z,10.73
2023-04-15T14:38:45.446Z,6.90
2023-04-15T14:43:49.165Z,6.53
2023-04-15T14:48:51.965Z,6.60
2023-04-15T14:53:54.598Z,7.97
2023-04-15T14:58:57.107Z,5.40
2023-04-15T15:04:01.466Z,7.83
2023-04-15T15:09:05.062Z,5.95
2023-04-15T15:14:07.724Z,6.93
2023-04-15T15:19:10.370Z,4.90
2023-04-15T15:24:16.552Z,5.10
2023-04-15T15:29:19.023Z,5.20
2023-04-15T15:34:21.477Z,4.35
2023-04-15T15:39:25.181Z,3.67
2023-04-15T15:44:28.056Z,6.93
2023-04-15T15:49:30.730Z,5.25
2023-04-15T15:54:33.568Z,7.20
2023-04-15T15:59:36.095Z,9.07
2023-04-15T16:04:39.696Z,6.37
2023-04-15T16:09:42.988Z,5.00
2023-04-15T16:14:47.538Z,7.03
2023-04-15T16:19:58.706Z,5.37
2023-04-15T16:25:03.916Z,6.82
2023-04-15T16:30:09.326Z,5.60
2023-04-15T16:35:12.093Z,6.22
2023-04-15T16:40:15.166Z,5.50
2023-04-15T16:45:17.901Z,4.57
2023-04-15T16:50:20.343Z,6.10
2023-04-15T16:55:22.884Z,5.13
2023-04-15T17:00:25.392Z,4.15
2023-04-15T17:10:48.113Z,4.77
2023-04-15T17:15:50.906Z,5.05
2023-04-15T17:21:03.059Z,7.57
2023-04-15T17:26:06.468Z,5.53
2023-04-15T17:31:09.733Z,5.47
2023-04-15T17:36:35.232Z,3.63
2023-04-15T17:41:57.808Z,4.15
2023-04-15T17:47:39.804Z,5.73
2023-04-15T17:53:20.661Z,7.85
2023-04-15T17:58:44.117Z,4.05
2023-04-15T18:04:09.583Z,5.97
2023-04-15T18:09:50.873Z,5.07
2023-04-15T18:15:14.834Z,9.17
2023-04-15T18:20:37.380Z,5.72
2023-04-15T18:25:40.048Z,6.25
2023-04-15T18:30:44.288Z,4.57
2023-04-15T18:35:49.350Z,4.85
2023-04-15T18:40:52.853Z,5.53
2023-04-15T18:45:55.426Z,4.22
2023-04-15T18:50:58.736Z,3.95
2023-04-15T18:56:03.536Z,4.87
2023-04-15T19:01:11.968Z,3.88
2023-04-15T19:06:14.714Z,5.60
2023-04-15T19:11:20.787Z,9.00
2023-04-15T19:16:23.501Z,4.72
2023-04-15T19:21:26.404Z,6.03
2023-04-15T19:26:29.061Z,5.63
2023-04-15T19:31:31.875Z,4.83
2023-04-15T19:36:34.904Z,7.80
2023-04-15T19:41:39.034Z,5.47
2023-04-15T19:46:45.213Z,5.30
2023-04-15T19:51:51.051Z,10.23
2023-04-15T19:56:53.472Z,6.43
2023-04-15T20:01:56.190Z,5.78
2023-04-15T20:06:58.944Z,5.63
2023-04-15T20:12:46.978Z,7.20
2023-04-15T20:17:23.836Z,5.00
2023-04-15T20:22:26.600Z,3.90
2023-04-15T20:27:29.158Z,6.78
2023-04-15T20:32:36.145Z,5.18
2023-04-15T20:37:40.656Z,6.03
2023-04-15T20:42:44.022Z,6.07
2023-04-15T20:47:46.606Z,4.47
2023-04-15T20:52:49.209Z,4.65
2023-04-15T20:57:52.120Z,4.88
2023-04-15T21:03:13.147Z,4.90
2023-04-15T21:08:15.843Z,6.57
2023-04-15T21:13:18.383Z,5.00
2023-04-15T21:18:21.971Z,5.40
2023-04-15T21:23:24.614Z,7.07
2023-04-15T21:28:28.545Z,4.63
2023-04-15T21:33:31.216Z,5.65
2023-04-15T21:38:34.356Z,7.43
2023-04-15T21:43:39.894Z,4.50
2023-04-15T21:48:42.509Z,7.18
2023-04-15T21:53:45.171Z,5.73
2023-04-15T21:58:47.671Z,7.55
2023-04-15T22:03:50.624Z,7.27
2023-04-15T22:08:57.557Z,6.50
2023-04-15T22:14:14.204Z,7.18
2023-04-15T22:19:16.650Z,7.20
2023-04-15T22:24:38.229Z,6.90
2023-04-15T22:29:42.357Z,6.20
2023-04-15T22:34:45.099Z,8.05
2023-04-15T22:39:48.087Z,7.38
2023-04-15T22:44:51.735Z,11.67
2023-04-15T22:49:54.233Z,10.82
2023-04-15T22:54:56.711Z,13.87
2023-04-15T22:59:59.351Z,11.27
2023-04-15T23:05:03.237Z,10.45
2023-04-15T23:10:16.284Z,14.50
2023-04-15T23:15:39.714Z,9.55
2023-04-15T23:20:42.413Z,8.70
2023-04-15T23:25:44.997Z,10.48
2023-04-15T23:30:47.441Z,12.07
2023-04-15T23:35:50.538Z,12.93
2023-04-15T23:40:53.131Z,15.07
2023-04-15T23:45:58.063Z,10.77
2023-04-15T23:51:02.835Z,12.68
2023-04-15T23:56:05.797Z,13.15
